sensor_id;sensor_type;location;lat;lon;timestamp;temperature;humidity
39881;DHT22;25554;44.954;10.068;2023-08-31T00:01:01;18.60;99.90
39881;DHT22;25554;44.954;10.068;2023-08-31T00:03:30;18.60;99.90
39881;DHT22;25554;44.954;10.068;2023-08-31T00:05:57;18.50;99.90
39881;DHT22;25554;44.954;10.068;2023-08-31T00:08:23;18.40;99.90
39881;DHT22;25554;44.954;10.068;2023-08-31T00:11:00;18.30;99.90
39881;DHT22;25554;44.954;10.068;2023-08-31T00:13:27;18.20;99.90
39881;DHT22;25554;44.954;10.068;2023-08-31T00:15:57;18.20;99.90
39881;DHT22;25554;44.954;10.068;2023-08-31T00:18:23;18.20;99.90
39881;DHT22;25554;44.954;10.068;2023-08-31T00:20:51;18.20;99.90
39881;DHT22;25554;44.954;10.068;2023-08-31T00:23:17;18.20;99.90
39881;DHT22;25554;44.954;10.068;2023-08-31T00:25:45;18.20;99.90
39881;DHT22;25554;44.954;10.068;2023-08-31T00:28:15;18.30;99.90
39881;DHT22;25554;44.954;10.068;2023-08-31T00:30:45;18.30;99.90
39881;DHT22;25554;44.954;10.068;2023-08-31T00:33:13;18.30;99.90
39881;DHT22;25554;44.954;10.068;2023-08-31T00:35:39;18.30;99.90
39881;DHT22;25554;44.954;10.068;2023-08-31T00:38:15;18.30;99.90
39881;DHT22;25554;44.954;10.068;2023-08-31T00:40:42;18.30;99.90
39881;DHT22;25554;44.954;10.068;2023-08-31T00:43:12;18.30;99.90
39881;DHT22;25554;44.954;10.068;2023-08-31T00:45:39;18.30;99.90
39881;DHT22;25554;44.954;10.068;2023-08-31T00:48:06;18.30;99.90
39881;DHT22;25554;44.954;10.068;2023-08-31T00:50:33;18.30;99.90
39881;DHT22;25554;44.954;10.068;2023-08-31T00:52:59;18.30;99.90
39881;DHT22;25554;44.954;10.068;2023-08-31T00:55:25;18.30;99.90
39881;DHT22;25554;44.954;10.068;2023-08-31T00:57:52;18.30;99.90
39881;DHT22;25554;44.954;10.068;2023-08-31T01:00:19;18.30;99.90
39881;DHT22;25554;44.954;10.068;2023-08-31T01:03:01;18.30;99.90
39881;DHT22;25554;44.954;10.068;2023-08-31T01:05:41;18.30;99.90
39881;DHT22;25554;44.954;10.068;2023-08-31T01:11:12;18.20;99.90
39881;DHT22;25554;44.954;10.068;2023-08-31T01:13:34;18.20;99.90
39881;DHT22;25554;44.954;10.068;2023-08-31T01:16:05;18.20;99.90
39881;DHT22;25554;44.954;10.068;2023-08-31T01:18:33;18.10;99.90
39881;DHT22;25554;44.954;10.068;2023-08-31T01:21:23;18.10;99.90
39881;DHT22;25554;44.954;10.068;2023-08-31T01:23:53;18.00;99.90
39881;DHT22;25554;44.954;10.068;2023-08-31T01:26:21;18.00;99.90
39881;DHT22;25554;44.954;10.068;2023-08-31T01:28:51;18.00;99.90
39881;DHT22;25554;44.954;10.068;2023-08-31T01:31:17;18.00;99.90
39881;DHT22;25554;44.954;10.068;2023-08-31T01:33:44;18.00;99.90
39881;DHT22;25554;44.954;10.068;2023-08-31T01:36:34;18.00;99.90
39881;DHT22;25554;44.954;10.068;2023-08-31T01:39:10;17.90;99.90
39881;DHT22;25554;44.954;10.068;2023-08-31T01:41:40;17.80;99.90
39881;DHT22;25554;44.954;10.068;2023-08-31T01:44:13;17.80;99.90
39881;DHT22;25554;44.954;10.068;2023-08-31T01:46:46;17.70;99.90
39881;DHT22;25554;44.954;10.068;2023-08-31T01:49:12;17.70;99.90
39881;DHT22;25554;44.954;10.068;2023-08-31T01:51:40;17.60;99.90
39881;DHT22;25554;44.954;10.068;2023-08-31T01:54:06;17.70;99.90
39881;DHT22;25554;44.954;10.068;2023-08-31T01:56:33;17.70;99.90
39881;DHT22;25554;44.954;10.068;2023-08-31T01:59:00;17.70;99.90
39881;DHT22;25554;44.954;10.068;2023-08-31T02:01:28;17.80;99.90
39881;DHT22;25554;44.954;10.068;2023-08-31T02:03:55;17.80;99.90
39881;DHT22;25554;44.954;10.068;2023-08-31T02:06:22;17.80;99.90
39881;DHT22;25554;44.954;10.068;2023-08-31T02:08:48;17.70;99.90
39881;DHT22;25554;44.954;10.068;2023-08-31T02:11:17;17.70;99.90
39881;DHT22;25554;44.954;10.068;2023-08-31T02:13:43;17.80;99.90
39881;DHT22;25554;44.954;10.068;2023-08-31T02:16:10;17.80;99.90
39881;DHT22;25554;44.954;10.068;2023-08-31T02:18:36;17.70;99.90
39881;DHT22;25554;44.954;10.068;2023-08-31T02:21:02;17.70;99.90
39881;DHT22;25554;44.954;10.068;2023-08-31T02:23:30;17.70;99.90
39881;DHT22;25554;44.954;10.068;2023-08-31T02:25:56;17.70;99.90
39881;DHT22;25554;44.954;10.068;2023-08-31T02:28:22;17.70;99.90
39881;DHT22;25554;44.954;10.068;2023-08-31T02:30:58;17.70;99.90
39881;DHT22;25554;44.954;10.068;2023-08-31T02:33:24;17.60;99.90
39881;DHT22;25554;44.954;10.068;2023-08-31T02:35:50;17.60;99.90
39881;DHT22;25554;44.954;10.068;2023-08-31T02:38:17;17.60;99.90
39881;DHT22;25554;44.954;10.068;2023-08-31T02:40:46;17.50;99.90
39881;DHT22;25554;44.954;10.068;2023-08-31T02:43:13;17.50;99.90
39881;DHT22;25554;44.954;10.068;2023-08-31T02:45:41;17.50;99.90
39881;DHT22;25554;44.954;10.068;2023-08-31T02:48:07;17.50;99.90
39881;DHT22;25554;44.954;10.068;2023-08-31T02:50:37;17.50;99.90
39881;DHT22;25554;44.954;10.068;2023-08-31T02:53:04;17.40;99.90
39881;DHT22;25554;44.954;10.068;2023-08-31T02:55:34;17.40;99.90
39881;DHT22;25554;44.954;10.068;2023-08-31T02:58:00;17.40;99.90
39881;DHT22;25554;44.954;10.068;2023-08-31T03:00:27;17.40;99.90
39881;DHT22;25554;44.954;10.068;2023-08-31T03:02:54;17.30;99.90
39881;DHT22;25554;44.954;10.068;2023-08-31T03:05:20;17.20;99.90
39881;DHT22;25554;44.954;10.068;2023-08-31T03:07:47;17.20;99.90
39881;DHT22;25554;44.954;10.068;2023-08-31T03:10:13;17.10;99.90
39881;DHT22;25554;44.954;10.068;2023-08-31T03:12:40;17.10;99.90
39881;DHT22;25554;44.954;10.068;2023-08-31T03:15:07;17.00;99.90
39881;DHT22;25554;44.954;10.068;2023-08-31T03:17:33;16.90;99.90
39881;DHT22;25554;44.954;10.068;2023-08-31T03:19:59;16.80;99.90
39881;DHT22;25554;44.954;10.068;2023-08-31T03:22:26;16.80;99.90
39881;DHT22;25554;44.954;10.068;2023-08-31T03:24:52;16.80;99.90
39881;DHT22;25554;44.954;10.068;2023-08-31T03:27:18;16.80;99.90
39881;DHT22;25554;44.954;10.068;2023-08-31T03:29:46;16.80;99.90
39881;DHT22;25554;44.954;10.068;2023-08-31T03:32:12;16.80;99.90
39881;DHT22;25554;44.954;10.068;2023-08-31T03:34:38;16.80;99.90
39881;DHT22;25554;44.954;10.068;2023-08-31T03:37:05;16.80;99.90
39881;DHT22;25554;44.954;10.068;2023-08-31T03:39:33;16.80;99.90
39881;DHT22;25554;44.954;10.068;2023-08-31T03:41:59;16.80;99.90
39881;DHT22;25554;44.954;10.068;2023-08-31T03:44:25;16.90;99.90
39881;DHT22;25554;44.954;10.068;2023-08-31T03:46:52;16.80;99.90
39881;DHT22;25554;44.954;10.068;2023-08-31T03:49:18;16.90;99.90
39881;DHT22;25554;44.954;10.068;2023-08-31T03:51:45;16.80;99.90
39881;DHT22;25554;44.954;10.068;2023-08-31T03:54:12;16.80;99.90
39881;DHT22;25554;44.954;10.068;2023-08-31T03:56:39;16.80;99.90
39881;DHT22;25554;44.954;10.068;2023-08-31T03:59:06;16.90;99.90
39881;DHT22;25554;44.954;10.068;2023-08-31T04:01:32;16.80;99.90
39881;DHT22;25554;44.954;10.068;2023-08-31T04:03:59;16.80;99.90
39881;DHT22;25554;44.954;10.068;2023-08-31T04:06:25;16.70;99.90
39881;DHT22;25554;44.954;10.068;2023-08-31T04:08:53;16.70;99.90
39881;DHT22;25554;44.954;10.068;2023-08-31T04:11:19;16.70;99.90
39881;DHT22;25554;44.954;10.068;2023-08-31T04:13:46;16.80;99.90
39881;DHT22;25554;44.954;10.068;2023-08-31T04:16:12;16.80;99.90
39881;DHT22;25554;44.954;10.068;2023-08-31T04:18:38;16.80;99.90
39881;DHT22;25554;44.954;10.068;2023-08-31T04:21:05;16.80;99.90
39881;DHT22;25554;44.954;10.068;2023-08-31T04:23:32;16.80;99.90
39881;DHT22;25554;44.954;10.068;2023-08-31T04:25:58;16.90;99.90
39881;DHT22;25554;44.954;10.068;2023-08-31T04:28:25;16.80;99.90
39881;DHT22;25554;44.954;10.068;2023-08-31T04:30:51;16.90;99.90
39881;DHT22;25554;44.954;10.068;2023-08-31T04:33:18;16.90;99.90
39881;DHT22;25554;44.954;10.068;2023-08-31T04:35:44;16.90;99.90
39881;DHT22;25554;44.954;10.068;2023-08-31T04:38:11;16.80;99.90
39881;DHT22;25554;44.954;10.068;2023-08-31T04:40:37;16.80;99.90
39881;DHT22;25554;44.954;10.068;2023-08-31T04:43:03;16.80;99.90
39881;DHT22;25554;44.954;10.068;2023-08-31T04:45:30;16.90;99.90
39881;DHT22;25554;44.954;10.068;2023-08-31T04:47:56;16.80;99.90
39881;DHT22;25554;44.954;10.068;2023-08-31T04:50:23;16.90;99.90
39881;DHT22;25554;44.954;10.068;2023-08-31T04:52:49;16.90;99.90
39881;DHT22;25554;44.954;10.068;2023-08-31T04:55:15;16.90;99.90
39881;DHT22;25554;44.954;10.068;2023-08-31T04:57:42;16.90;99.90
39881;DHT22;25554;44.954;10.068;2023-08-31T05:00:08;16.90;99.90
39881;DHT22;25554;44.954;10.068;2023-08-31T05:02:38;17.00;99.90
39881;DHT22;25554;44.954;10.068;2023-08-31T05:05:04;17.00;99.90
39881;DHT22;25554;44.954;10.068;2023-08-31T05:07:31;17.00;99.90
39881;DHT22;25554;44.954;10.068;2023-08-31T05:09:58;17.00;99.90
39881;DHT22;25554;44.954;10.068;2023-08-31T05:12:24;17.10;99.90
39881;DHT22;25554;44.954;10.068;2023-08-31T05:14:50;17.10;99.90
39881;DHT22;25554;44.954;10.068;2023-08-31T05:17:17;17.20;99.90
39881;DHT22;25554;44.954;10.068;2023-08-31T05:19:43;17.20;99.90
39881;DHT22;25554;44.954;10.068;2023-08-31T05:22:09;17.20;99.90
39881;DHT22;25554;44.954;10.068;2023-08-31T05:24:36;17.30;99.90
39881;DHT22;25554;44.954;10.068;2023-08-31T05:27:02;17.30;99.90
39881;DHT22;25554;44.954;10.068;2023-08-31T05:29:29;17.30;99.90
39881;DHT22;25554;44.954;10.068;2023-08-31T05:31:56;17.40;99.90
39881;DHT22;25554;44.954;10.068;2023-08-31T05:34:22;17.40;99.90
39881;DHT22;25554;44.954;10.068;2023-08-31T05:36:51;17.40;99.90
39881;DHT22;25554;44.954;10.068;2023-08-31T05:39:18;17.40;99.90
39881;DHT22;25554;44.954;10.068;2023-08-31T05:41:44;17.40;99.90
39881;DHT22;25554;44.954;10.068;2023-08-31T05:44:11;17.50;99.90
39881;DHT22;25554;44.954;10.068;2023-08-31T05:46:37;17.50;99.90
39881;DHT22;25554;44.954;10.068;2023-08-31T05:49:04;17.50;99.90
39881;DHT22;25554;44.954;10.068;2023-08-31T05:51:30;17.60;99.90
39881;DHT22;25554;44.954;10.068;2023-08-31T05:53:57;17.60;99.90
39881;DHT22;25554;44.954;10.068;2023-08-31T05:56:23;17.60;99.90
39881;DHT22;25554;44.954;10.068;2023-08-31T05:58:49;17.60;99.90
39881;DHT22;25554;44.954;10.068;2023-08-31T06:01:16;17.70;99.90
39881;DHT22;25554;44.954;10.068;2023-08-31T06:03:43;17.70;99.90
39881;DHT22;25554;44.954;10.068;2023-08-31T06:06:09;17.80;99.90
39881;DHT22;25554;44.954;10.068;2023-08-31T06:08:35;17.80;99.90
39881;DHT22;25554;44.954;10.068;2023-08-31T06:11:01;17.80;99.90
39881;DHT22;25554;44.954;10.068;2023-08-31T06:13:28;17.90;99.90
39881;DHT22;25554;44.954;10.068;2023-08-31T06:15:54;17.90;99.90
39881;DHT22;25554;44.954;10.068;2023-08-31T06:18:22;18.00;99.90
39881;DHT22;25554;44.954;10.068;2023-08-31T06:20:49;18.00;99.90
39881;DHT22;25554;44.954;10.068;2023-08-31T06:23:15;18.10;99.90
39881;DHT22;25554;44.954;10.068;2023-08-31T06:25:42;18.10;99.90
39881;DHT22;25554;44.954;10.068;2023-08-31T06:28:08;18.10;99.90
39881;DHT22;25554;44.954;10.068;2023-08-31T06:30:37;18.20;99.90
39881;DHT22;25554;44.954;10.068;2023-08-31T06:33:04;18.20;99.90
39881;DHT22;25554;44.954;10.068;2023-08-31T06:35:30;18.30;99.90
39881;DHT22;25554;44.954;10.068;2023-08-31T06:37:57;18.30;99.90
39881;DHT22;25554;44.954;10.068;2023-08-31T06:40:24;18.40;99.90
39881;DHT22;25554;44.954;10.068;2023-08-31T06:42:51;18.40;99.90
39881;DHT22;25554;44.954;10.068;2023-08-31T06:45:17;18.50;99.90
39881;DHT22;25554;44.954;10.068;2023-08-31T06:47:43;18.80;99.90
39881;DHT22;25554;44.954;10.068;2023-08-31T06:50:10;18.70;99.90
39881;DHT22;25554;44.954;10.068;2023-08-31T06:52:36;18.80;99.90
39881;DHT22;25554;44.954;10.068;2023-08-31T06:55:02;19.00;99.90
39881;DHT22;25554;44.954;10.068;2023-08-31T06:57:29;19.00;99.90
39881;DHT22;25554;44.954;10.068;2023-08-31T06:59:55;19.10;99.90
39881;DHT22;25554;44.954;10.068;2023-08-31T07:02:21;19.20;99.90
39881;DHT22;25554;44.954;10.068;2023-08-31T07:04:48;19.20;99.90
39881;DHT22;25554;44.954;10.068;2023-08-31T07:07:15;19.20;99.90
39881;DHT22;25554;44.954;10.068;2023-08-31T07:09:42;19.20;99.90
39881;DHT22;25554;44.954;10.068;2023-08-31T07:12:10;19.30;99.90
39881;DHT22;25554;44.954;10.068;2023-08-31T07:14:36;19.40;99.90
39881;DHT22;25554;44.954;10.068;2023-08-31T07:17:03;19.40;99.90
39881;DHT22;25554;44.954;10.068;2023-08-31T07:19:29;19.40;99.90
39881;DHT22;25554;44.954;10.068;2023-08-31T07:21:55;19.60;99.90
39881;DHT22;25554;44.954;10.068;2023-08-31T07:24:22;19.80;99.90
39881;DHT22;25554;44.954;10.068;2023-08-31T07:26:49;20.00;99.90
39881;DHT22;25554;44.954;10.068;2023-08-31T07:29:15;20.20;99.90
39881;DHT22;25554;44.954;10.068;2023-08-31T07:31:42;20.40;99.90
39881;DHT22;25554;44.954;10.068;2023-08-31T07:34:08;20.60;99.90
39881;DHT22;25554;44.954;10.068;2023-08-31T07:36:34;20.80;99.90
39881;DHT22;25554;44.954;10.068;2023-08-31T07:39:01;21.00;99.90
39881;DHT22;25554;44.954;10.068;2023-08-31T07:41:27;21.10;99.90
39881;DHT22;25554;44.954;10.068;2023-08-31T07:43:53;21.20;99.90
39881;DHT22;25554;44.954;10.068;2023-08-31T07:46:20;21.40;99.90
39881;DHT22;25554;44.954;10.068;2023-08-31T07:48:46;21.50;99.90
39881;DHT22;25554;44.954;10.068;2023-08-31T07:51:14;21.50;99.90
39881;DHT22;25554;44.954;10.068;2023-08-31T07:53:40;21.60;99.90
39881;DHT22;25554;44.954;10.068;2023-08-31T07:56:07;21.70;99.90
39881;DHT22;25554;44.954;10.068;2023-08-31T07:58:33;21.70;99.90
39881;DHT22;25554;44.954;10.068;2023-08-31T08:00:59;21.80;99.90
39881;DHT22;25554;44.954;10.068;2023-08-31T08:03:26;21.80;99.90
39881;DHT22;25554;44.954;10.068;2023-08-31T08:05:52;21.90;99.90
39881;DHT22;25554;44.954;10.068;2023-08-31T08:08:18;22.10;99.90
39881;DHT22;25554;44.954;10.068;2023-08-31T08:10:44;22.10;99.90
39881;DHT22;25554;44.954;10.068;2023-08-31T08:13:12;22.10;99.90
39881;DHT22;25554;44.954;10.068;2023-08-31T08:15:38;22.00;99.90
39881;DHT22;25554;44.954;10.068;2023-08-31T08:18:04;22.20;99.90
39881;DHT22;25554;44.954;10.068;2023-08-31T08:20:31;22.20;99.90
39881;DHT22;25554;44.954;10.068;2023-08-31T08:22:57;22.30;99.90
39881;DHT22;25554;44.954;10.068;2023-08-31T08:25:24;22.40;99.90
39881;DHT22;25554;44.954;10.068;2023-08-31T08:27:51;22.60;99.90
39881;DHT22;25554;44.954;10.068;2023-08-31T08:30:17;22.80;99.90
39881;DHT22;25554;44.954;10.068;2023-08-31T08:32:44;22.80;99.90
39881;DHT22;25554;44.954;10.068;2023-08-31T08:35:11;22.90;99.90
39881;DHT22;25554;44.954;10.068;2023-08-31T08:37:37;23.00;99.90
39881;DHT22;25554;44.954;10.068;2023-08-31T08:40:04;23.00;99.90
39881;DHT22;25554;44.954;10.068;2023-08-31T08:42:31;23.10;99.90
39881;DHT22;25554;44.954;10.068;2023-08-31T08:44:58;23.20;99.90
39881;DHT22;25554;44.954;10.068;2023-08-31T08:47:25;23.30;99.90
39881;DHT22;25554;44.954;10.068;2023-08-31T08:49:53;23.40;99.90
39881;DHT22;25554;44.954;10.068;2023-08-31T08:52:21;23.50;99.90
39881;DHT22;25554;44.954;10.068;2023-08-31T08:54:49;23.60;99.90
39881;DHT22;25554;44.954;10.068;2023-08-31T08:57:15;23.80;99.90
39881;DHT22;25554;44.954;10.068;2023-08-31T08:59:42;23.90;99.90
39881;DHT22;25554;44.954;10.068;2023-08-31T09:02:10;24.10;99.90
39881;DHT22;25554;44.954;10.068;2023-08-31T09:04:38;23.90;99.90
39881;DHT22;25554;44.954;10.068;2023-08-31T09:07:04;23.90;99.90
39881;DHT22;25554;44.954;10.068;2023-08-31T09:09:31;24.10;99.90
39881;DHT22;25554;44.954;10.068;2023-08-31T09:12:06;24.20;99.90
39881;DHT22;25554;44.954;10.068;2023-08-31T09:14:34;24.20;99.90
39881;DHT22;25554;44.954;10.068;2023-08-31T09:17:00;24.20;99.90
39881;DHT22;25554;44.954;10.068;2023-08-31T09:19:36;24.40;99.90
39881;DHT22;25554;44.954;10.068;2023-08-31T09:22:02;24.60;99.90
39881;DHT22;25554;44.954;10.068;2023-08-31T09:24:28;24.70;99.90
39881;DHT22;25554;44.954;10.068;2023-08-31T09:26:57;24.60;99.90
39881;DHT22;25554;44.954;10.068;2023-08-31T09:29:24;24.80;99.90
39881;DHT22;25554;44.954;10.068;2023-08-31T09:31:51;25.00;99.90
39881;DHT22;25554;44.954;10.068;2023-08-31T09:34:17;25.10;99.90
39881;DHT22;25554;44.954;10.068;2023-08-31T09:36:44;25.30;99.90
39881;DHT22;25554;44.954;10.068;2023-08-31T09:39:13;25.40;99.90
39881;DHT22;25554;44.954;10.068;2023-08-31T09:41:56;25.40;99.90
39881;DHT22;25554;44.954;10.068;2023-08-31T09:44:22;25.60;99.90
39881;DHT22;25554;44.954;10.068;2023-08-31T09:46:49;25.80;99.90
39881;DHT22;25554;44.954;10.068;2023-08-31T09:49:15;25.80;99.90
39881;DHT22;25554;44.954;10.068;2023-08-31T09:51:45;25.70;99.90
39881;DHT22;25554;44.954;10.068;2023-08-31T09:54:19;25.30;99.90
39881;DHT22;25554;44.954;10.068;2023-08-31T09:56:47;25.20;99.90
39881;DHT22;25554;44.954;10.068;2023-08-31T09:59:15;25.20;99.90
39881;DHT22;25554;44.954;10.068;2023-08-31T10:01:46;25.10;99.90
39881;DHT22;25554;44.954;10.068;2023-08-31T10:04:13;25.30;99.90
39881;DHT22;25554;44.954;10.068;2023-08-31T10:06:40;25.50;99.90
39881;DHT22;25554;44.954;10.068;2023-08-31T10:09:07;25.60;99.90
39881;DHT22;25554;44.954;10.068;2023-08-31T10:11:40;25.90;99.90
39881;DHT22;25554;44.954;10.068;2023-08-31T10:14:10;26.10;99.90
39881;DHT22;25554;44.954;10.068;2023-08-31T10:16:39;26.00;99.90
39881;DHT22;25554;44.954;10.068;2023-08-31T10:19:06;26.10;99.90
39881;DHT22;25554;44.954;10.068;2023-08-31T10:21:32;26.10;99.90
39881;DHT22;25554;44.954;10.068;2023-08-31T10:23:59;25.90;99.90
39881;DHT22;25554;44.954;10.068;2023-08-31T10:28:53;26.00;99.90
39881;DHT22;25554;44.954;10.068;2023-08-31T10:31:21;26.10;99.90
39881;DHT22;25554;44.954;10.068;2023-08-31T10:34:02;26.20;99.90
39881;DHT22;25554;44.954;10.068;2023-08-31T10:36:40;26.20;99.90
39881;DHT22;25554;44.954;10.068;2023-08-31T10:39:15;26.20;99.90
39881;DHT22;25554;44.954;10.068;2023-08-31T10:42:00;26.30;99.90
39881;DHT22;25554;44.954;10.068;2023-08-31T10:44:30;26.20;99.90
39881;DHT22;25554;44.954;10.068;2023-08-31T10:47:00;26.20;99.90
39881;DHT22;25554;44.954;10.068;2023-08-31T10:49:26;26.40;99.90
39881;DHT22;25554;44.954;10.068;2023-08-31T10:51:56;26.50;99.90
39881;DHT22;25554;44.954;10.068;2023-08-31T10:54:26;26.60;99.90
39881;DHT22;25554;44.954;10.068;2023-08-31T10:59:51;26.80;99.90
39881;DHT22;25554;44.954;10.068;2023-08-31T11:02:34;27.00;99.90
39881;DHT22;25554;44.954;10.068;2023-08-31T11:05:02;27.10;99.90
39881;DHT22;25554;44.954;10.068;2023-08-31T11:07:30;27.00;99.80
39881;DHT22;25554;44.954;10.068;2023-08-31T11:10:17;26.80;99.90
39881;DHT22;25554;44.954;10.068;2023-08-31T11:12:48;26.70;99.70
39881;DHT22;25554;44.954;10.068;2023-08-31T11:15:20;26.50;99.90
39881;DHT22;25554;44.954;10.068;2023-08-31T11:17:50;26.60;99.70
39881;DHT22;25554;44.954;10.068;2023-08-31T11:20:19;26.60;99.80
39881;DHT22;25554;44.954;10.068;2023-08-31T11:22:47;26.80;99.90
39881;DHT22;25554;44.954;10.068;2023-08-31T11:25:16;27.10;99.90
39881;DHT22;25554;44.954;10.068;2023-08-31T11:27:53;27.20;99.30
39881;DHT22;25554;44.954;10.068;2023-08-31T11:30:20;27.30;98.80
39881;DHT22;25554;44.954;10.068;2023-08-31T11:32:51;27.50;98.80
39881;DHT22;25554;44.954;10.068;2023-08-31T11:35:19;27.60;98.50
39881;DHT22;25554;44.954;10.068;2023-08-31T11:37:50;27.60;98.50
39881;DHT22;25554;44.954;10.068;2023-08-31T11:40:16;27.50;98.60
39881;DHT22;25554;44.954;10.068;2023-08-31T11:42:42;27.40;98.70
39881;DHT22;25554;44.954;10.068;2023-08-31T11:45:11;27.50;98.40
39881;DHT22;25554;44.954;10.068;2023-08-31T11:47:39;27.60;98.60
39881;DHT22;25554;44.954;10.068;2023-08-31T11:50:07;27.70;98.10
39881;DHT22;25554;44.954;10.068;2023-08-31T11:52:34;27.70;98.20
39881;DHT22;25554;44.954;10.068;2023-08-31T11:55:00;27.70;98.30
39881;DHT22;25554;44.954;10.068;2023-08-31T11:57:26;27.60;98.40
39881;DHT22;25554;44.954;10.068;2023-08-31T11:59:55;27.50;98.20
39881;DHT22;25554;44.954;10.068;2023-08-31T12:02:24;27.40;98.10
39881;DHT22;25554;44.954;10.068;2023-08-31T12:04:50;27.30;98.50
39881;DHT22;25554;44.954;10.068;2023-08-31T12:07:18;27.40;98.50
39881;DHT22;25554;44.954;10.068;2023-08-31T12:09:45;27.50;98.30
39881;DHT22;25554;44.954;10.068;2023-08-31T12:12:15;27.70;98.10
39881;DHT22;25554;44.954;10.068;2023-08-31T12:14:44;27.90;97.60
39881;DHT22;25554;44.954;10.068;2023-08-31T12:17:10;27.90;97.50
39881;DHT22;25554;44.954;10.068;2023-08-31T12:19:37;27.90;98.00
39881;DHT22;25554;44.954;10.068;2023-08-31T12:22:05;28.00;97.80
39881;DHT22;25554;44.954;10.068;2023-08-31T12:24:39;28.10;97.60
39881;DHT22;25554;44.954;10.068;2023-08-31T12:27:09;28.40;97.70
39881;DHT22;25554;44.954;10.068;2023-08-31T12:29:36;28.40;97.10
39881;DHT22;25554;44.954;10.068;2023-08-31T12:32:02;28.60;97.20
39881;DHT22;25554;44.954;10.068;2023-08-31T12:34:29;28.40;96.70
39881;DHT22;25554;44.954;10.068;2023-08-31T12:36:58;28.40;96.50
39881;DHT22;25554;44.954;10.068;2023-08-31T12:39:28;28.30;96.50
39881;DHT22;25554;44.954;10.068;2023-08-31T12:41:55;28.30;97.00
39881;DHT22;25554;44.954;10.068;2023-08-31T12:44:22;28.40;96.80
39881;DHT22;25554;44.954;10.068;2023-08-31T12:46:48;28.60;97.20
39881;DHT22;25554;44.954;10.068;2023-08-31T12:49:14;28.50;96.60
39881;DHT22;25554;44.954;10.068;2023-08-31T12:51:41;28.60;96.50
39881;DHT22;25554;44.954;10.068;2023-08-31T12:54:07;28.70;96.20
39881;DHT22;25554;44.954;10.068;2023-08-31T12:56:44;28.70;96.40
39881;DHT22;25554;44.954;10.068;2023-08-31T12:59:10;28.90;95.70
39881;DHT22;25554;44.954;10.068;2023-08-31T13:01:37;28.70;96.10
39881;DHT22;25554;44.954;10.068;2023-08-31T13:04:04;28.80;96.50
39881;DHT22;25554;44.954;10.068;2023-08-31T13:06:31;28.90;96.80
39881;DHT22;25554;44.954;10.068;2023-08-31T13:08:57;28.90;96.80
39881;DHT22;25554;44.954;10.068;2023-08-31T13:11:23;28.80;96.40
39881;DHT22;25554;44.954;10.068;2023-08-31T13:13:50;28.70;96.80
39881;DHT22;25554;44.954;10.068;2023-08-31T13:16:22;28.60;96.70
39881;DHT22;25554;44.954;10.068;2023-08-31T13:18:50;28.50;96.60
39881;DHT22;25554;44.954;10.068;2023-08-31T13:21:16;28.10;96.70
39881;DHT22;25554;44.954;10.068;2023-08-31T13:23:43;27.90;97.00
39881;DHT22;25554;44.954;10.068;2023-08-31T13:26:10;27.70;97.20
39881;DHT22;25554;44.954;10.068;2023-08-31T13:28:36;27.60;97.30
39881;DHT22;25554;44.954;10.068;2023-08-31T13:31:02;27.70;97.40
39881;DHT22;25554;44.954;10.068;2023-08-31T13:33:29;27.60;97.60
39881;DHT22;25554;44.954;10.068;2023-08-31T13:35:58;27.60;97.60
39881;DHT22;25554;44.954;10.068;2023-08-31T13:38:25;27.50;97.70
39881;DHT22;25554;44.954;10.068;2023-08-31T13:40:56;27.40;98.00
39881;DHT22;25554;44.954;10.068;2023-08-31T13:43:23;27.30;97.80
39881;DHT22;25554;44.954;10.068;2023-08-31T13:45:50;27.20;97.90
39881;DHT22;25554;44.954;10.068;2023-08-31T13:48:16;27.20;98.10
39881;DHT22;25554;44.954;10.068;2023-08-31T13:50:42;27.20;98.50
39881;DHT22;25554;44.954;10.068;2023-08-31T13:53:09;27.10;98.30
39881;DHT22;25554;44.954;10.068;2023-08-31T13:55:36;27.00;98.50
39881;DHT22;25554;44.954;10.068;2023-08-31T13:58:06;26.90;98.70
39881;DHT22;25554;44.954;10.068;2023-08-31T14:00:34;26.90;98.70
39881;DHT22;25554;44.954;10.068;2023-08-31T14:03:01;26.90;98.90
39881;DHT22;25554;44.954;10.068;2023-08-31T14:05:29;26.80;99.10
39881;DHT22;25554;44.954;10.068;2023-08-31T14:07:56;26.80;99.00
39881;DHT22;25554;44.954;10.068;2023-08-31T14:10:24;26.70;99.00
39881;DHT22;25554;44.954;10.068;2023-08-31T14:12:51;26.60;98.80
39881;DHT22;25554;44.954;10.068;2023-08-31T14:15:17;26.60;99.40
39881;DHT22;25554;44.954;10.068;2023-08-31T14:17:43;26.50;99.90
39881;DHT22;25554;44.954;10.068;2023-08-31T14:20:10;26.40;99.90
39881;DHT22;25554;44.954;10.068;2023-08-31T14:22:37;25.90;99.90
39881;DHT22;25554;44.954;10.068;2023-08-31T14:25:11;25.40;99.90
39881;DHT22;25554;44.954;10.068;2023-08-31T14:27:38;24.90;99.90
39881;DHT22;25554;44.954;10.068;2023-08-31T14:30:05;24.60;99.90
39881;DHT22;25554;44.954;10.068;2023-08-31T14:32:32;24.30;99.90
39881;DHT22;25554;44.954;10.068;2023-08-31T14:34:58;23.90;99.90
39881;DHT22;25554;44.954;10.068;2023-08-31T14:37:24;23.50;99.90
39881;DHT22;25554;44.954;10.068;2023-08-31T14:39:51;23.30;99.90
39881;DHT22;25554;44.954;10.068;2023-08-31T14:42:17;23.20;99.90
39881;DHT22;25554;44.954;10.068;2023-08-31T14:44:47;23.00;99.90
39881;DHT22;25554;44.954;10.068;2023-08-31T14:47:13;22.90;99.90
39881;DHT22;25554;44.954;10.068;2023-08-31T14:49:40;22.90;99.90
39881;DHT22;25554;44.954;10.068;2023-08-31T14:52:07;22.80;99.90
39881;DHT22;25554;44.954;10.068;2023-08-31T14:54:33;22.80;99.90
39881;DHT22;25554;44.954;10.068;2023-08-31T14:57:00;22.70;99.90
39881;DHT22;25554;44.954;10.068;2023-08-31T14:59:26;22.70;99.90
39881;DHT22;25554;44.954;10.068;2023-08-31T15:01:52;22.80;99.90
39881;DHT22;25554;44.954;10.068;2023-08-31T15:04:19;22.90;99.90
39881;DHT22;25554;44.954;10.068;2023-08-31T15:06:45;23.10;99.90
39881;DHT22;25554;44.954;10.068;2023-08-31T15:09:12;23.30;99.90
39881;DHT22;25554;44.954;10.068;2023-08-31T15:11:38;23.40;99.90
39881;DHT22;25554;44.954;10.068;2023-08-31T15:14:05;23.50;99.90
39881;DHT22;25554;44.954;10.068;2023-08-31T15:16:32;23.60;99.90
39881;DHT22;25554;44.954;10.068;2023-08-31T15:19:00;23.60;99.90
39881;DHT22;25554;44.954;10.068;2023-08-31T15:21:27;23.60;99.90
39881;DHT22;25554;44.954;10.068;2023-08-31T15:23:53;23.60;99.90
39881;DHT22;25554;44.954;10.068;2023-08-31T15:26:19;23.50;99.90